Time;durP1;ratioP1;P1;durP2;ratioP2;P2;SDS_P1;SDS_P2;PMS_P1;PMS_P2;Temp;Humidity;BMP_temperature;BMP_pressure;BME280_temperature;BME280_humidity;BME280_pressure;Samples;Min_cycle;Max_cycle;Signal;HPM_P1;HPM_P2
2022/09/10 00:00:53;;;;;;;38.10;28.27;;;;;;;;;;5064373;28;20116;-74
2022/09/10 00:03:20;;;;;;;36.75;28.05;;;;;;;;;;5060385;28;20033;-74
2022/09/10 00:05:45;;;;;;;40.47;27.98;;;;;;;;;;5062204;28;20103;-74
2022/09/10 00:08:11;;;;;;;36.00;26.27;;;;;;;;;;5037060;28;20103;-74
2022/09/10 00:10:43;;;;;;;45.78;28.30;;;;;;;;;;5054898;28;20024;-74
2022/09/10 00:13:09;;;;;;;43.10;29.65;;;;;;;;;;5045540;28;20032;-74
2022/09/10 00:15:44;;;;;;;50.60;30.02;;;;;;;;;;5061160;28;20415;-74
2022/09/10 00:18:10;;;;;;;44.97;31.60;;;;;;;;;;5028213;28;20051;-74
2022/09/10 00:20:53;;;;;;;44.13;31.00;;;;;;;;;;5059646;28;20040;-74
2022/09/10 00:23:20;;;;;;;39.53;28.98;;;;;;;;;;5077857;28;20063;-74
2022/09/10 00:25:45;;;;;;;45.97;31.08;;;;;;;;;;5058935;28;20040;-74
2022/09/10 00:28:11;;;;;;;44.38;31.23;;;;;;;;;;5058047;28;20035;-74
2022/09/10 00:30:40;;;;;;;46.88;32.55;;;;;;;;;;5059349;28;20093;-74
2022/09/10 00:33:05;;;;;;;47.83;32.22;;;;;;;;;;5076775;28;20032;-74
2022/09/10 00:35:32;;;;;;;42.78;29.25;;;;;;;;;;5043489;28;20043;-74
2022/09/10 00:37:57;;;;;;;46.80;30.30;;;;;;;;;;5054560;28;20021;-74
2022/09/10 00:40:22;;;;;;;53.38;33.53;;;;;;;;;;5075799;28;20531;-73
2022/09/10 00:42:48;;;;;;;50.00;31.75;;;;;;;;;;5076982;28;20052;-73
2022/09/10 00:45:21;;;;;;;49.00;32.13;;;;;;;;;;5076047;28;20052;-73
2022/09/10 00:47:47;;;;;;;47.45;33.65;;;;;;;;;;5062814;28;20563;-73
2022/09/10 00:50:21;;;;;;;45.35;30.55;;;;;;;;;;5066890;28;20503;-73
2022/09/10 00:52:47;;;;;;;51.05;31.05;;;;;;;;;;5065864;28;20035;-74
2022/09/10 00:55:13;;;;;;;44.42;30.60;;;;;;;;;;5064449;28;20429;-74
2022/09/10 00:57:38;;;;;;;45.97;31.33;;;;;;;;;;5043193;28;20020;-74
2022/09/10 01:00:09;;;;;;;43.15;30.40;;;;;;;;;;5081953;28;20183;-74
2022/09/10 01:02:34;;;;;;;42.30;29.58;;;;;;;;;;5063687;28;20043;-74
2022/09/10 01:05:00;;;;;;;42.85;29.48;;;;;;;;;;5073755;28;20024;-74
2022/09/10 01:07:27;;;;;;;44.38;28.73;;;;;;;;;;5058899;28;20027;-74
2022/09/10 01:09:55;;;;;;;44.20;31.00;;;;;;;;;;5060005;28;20024;-74
2022/09/10 01:12:39;;;;;;;44.90;31.50;;;;;;;;;;5076497;28;20031;-74
2022/09/10 01:15:29;;;;;;;46.75;30.38;;;;;;;;;;5079488;28;20036;-74
2022/09/10 01:18:07;;;;;;;41.40;29.40;;;;;;;;;;5060020;28;20055;-75
2022/09/10 01:21:13;;;;;;;40.15;29.23;;;;;;;;;;5078072;28;20020;-75
2022/09/10 01:24:08;;;;;;;37.95;28.00;;;;;;;;;;5044845;28;20513;-74
2022/09/10 01:27:01;;;;;;;39.83;28.48;;;;;;;;;;5024558;28;20033;-73
2022/09/10 01:29:54;;;;;;;37.55;27.13;;;;;;;;;;5070654;28;20543;-74
2022/09/10 01:32:26;;;;;;;42.90;29.10;;;;;;;;;;5068551;28;20507;-74
2022/09/10 01:35:17;;;;;;;37.83;27.70;;;;;;;;;;5063504;28;20487;-74
2022/09/10 01:37:52;;;;;;;38.50;27.67;;;;;;;;;;5079352;28;20444;-74
2022/09/10 01:40:17;;;;;;;33.88;26.33;;;;;;;;;;5062643;28;20053;-74
2022/09/10 01:42:44;;;;;;;39.00;26.30;;;;;;;;;;5061772;28;20024;-74
2022/09/10 01:45:11;;;;;;;35.63;27.10;;;;;;;;;;5063278;28;20028;-74
2022/09/10 01:47:40;;;;;;;37.28;26.20;;;;;;;;;;5042965;28;20055;-74
2022/09/10 01:50:30;;;;;;;37.70;26.25;;;;;;;;;;5077341;28;20042;-74
2022/09/10 01:53:07;;;;;;;34.70;25.75;;;;;;;;;;5062668;28;20040;-74
2022/09/10 01:55:43;;;;;;;38.33;26.33;;;;;;;;;;5075328;28;20108;-75
2022/09/10 01:58:18;;;;;;;36.67;26.02;;;;;;;;;;5058669;28;20039;-75
2022/09/10 02:01:04;;;;;;;31.55;25.23;;;;;;;;;;5075069;28;20036;-72
2022/09/10 02:03:29;;;;;;;29.35;24.60;;;;;;;;;;5078468;28;20064;-74
2022/09/10 02:05:54;;;;;;;33.20;25.08;;;;;;;;;;5059495;28;20504;-74
2022/09/10 02:08:27;;;;;;;35.72;24.40;;;;;;;;;;5059709;28;20068;-74
2022/09/10 02:11:00;;;;;;;31.40;25.00;;;;;;;;;;5059452;28;20028;-74
2022/09/10 02:13:26;;;;;;;31.35;24.13;;;;;;;;;;5046351;28;20277;-74
2022/09/10 02:15:52;;;;;;;32.10;24.15;;;;;;;;;;5043582;28;20047;-74
2022/09/10 02:18:20;;;;;;;31.40;23.65;;;;;;;;;;5061242;28;20031;-74
2022/09/10 02:20:46;;;;;;;31.67;22.60;;;;;;;;;;5056791;28;20475;-74
2022/09/10 02:23:12;;;;;;;30.55;24.42;;;;;;;;;;5063467;28;20047;-74
2022/09/10 02:25:37;;;;;;;33.45;23.42;;;;;;;;;;5058131;28;20098;-74
2022/09/10 02:28:04;;;;;;;33.20;24.70;;;;;;;;;;5060552;28;20086;-74
2022/09/10 02:30:29;;;;;;;30.60;22.80;;;;;;;;;;5060484;28;20143;-74
2022/09/10 02:32:54;;;;;;;29.55;22.35;;;;;;;;;;5048587;28;20059;-74
2022/09/10 02:35:20;;;;;;;34.55;25.63;;;;;;;;;;5059716;28;20028;-74
2022/09/10 02:37:45;;;;;;;30.35;23.42;;;;;;;;;;5031579;28;20032;-74
2022/09/10 02:40:11;;;;;;;32.47;23.20;;;;;;;;;;5077899;28;20028;-74
2022/09/10 02:42:37;;;;;;;33.58;24.35;;;;;;;;;;5062764;28;20070;-74
2022/09/10 02:45:03;;;;;;;30.58;25.02;;;;;;;;;;5058526;28;20437;-74
2022/09/10 02:47:29;;;;;;;28.95;23.15;;;;;;;;;;5075249;28;20476;-74
2022/09/10 02:49:54;;;;;;;26.98;22.90;;;;;;;;;;5060048;28;20041;-74
2022/09/10 02:52:20;;;;;;;32.70;22.23;;;;;;;;;;5077843;28;20115;-74
2022/09/10 02:54:46;;;;;;;29.95;22.73;;;;;;;;;;5061070;28;20044;-74
2022/09/10 02:57:11;;;;;;;33.83;23.23;;;;;;;;;;5082366;28;20104;-74
2022/09/10 02:59:36;;;;;;;30.38;21.50;;;;;;;;;;5070407;28;20119;-74
2022/09/10 03:02:02;;;;;;;30.40;23.13;;;;;;;;;;5059678;28;20016;-74
2022/09/10 03:04:27;;;;;;;31.95;23.27;;;;;;;;;;5073307;28;20028;-74
2022/09/10 03:06:53;;;;;;;35.60;23.52;;;;;;;;;;5059094;28;20487;-74
2022/09/10 03:09:19;;;;;;;34.97;22.75;;;;;;;;;;5074393;28;20032;-74
2022/09/10 03:11:45;;;;;;;31.75;23.77;;;;;;;;;;5061542;28;20028;-74
2022/09/10 03:14:11;;;;;;;30.90;23.27;;;;;;;;;;5076951;28;20111;-74
2022/09/10 03:16:38;;;;;;;32.28;22.45;;;;;;;;;;5055288;28;20046;-74
2022/09/10 03:19:04;;;;;;;29.50;22.58;;;;;;;;;;5078420;28;20406;-74
2022/09/10 03:21:29;;;;;;;29.98;22.55;;;;;;;;;;5057969;28;20057;-76
2022/09/10 03:23:55;;;;;;;37.05;23.13;;;;;;;;;;5055769;28;20520;-73
2022/09/10 03:26:20;;;;;;;38.90;22.60;;;;;;;;;;5051368;28;20048;-74
2022/09/10 03:28:46;;;;;;;33.55;23.30;;;;;;;;;;5056645;28;20045;-73
2022/09/10 03:31:12;;;;;;;29.13;21.77;;;;;;;;;;5054229;28;20044;-73
2022/09/10 03:33:38;;;;;;;33.85;22.90;;;;;;;;;;5040969;28;20058;-73
2022/09/10 03:36:03;;;;;;;34.58;23.70;;;;;;;;;;5076673;28;20036;-74
2022/09/10 03:38:29;;;;;;;30.67;23.33;;;;;;;;;;5078084;28;20024;-73
2022/09/10 03:40:54;;;;;;;30.88;23.13;;;;;;;;;;5060395;28;20032;-73
2022/09/10 03:43:21;;;;;;;30.73;23.02;;;;;;;;;;5062907;28;20035;-75
2022/09/10 03:45:48;;;;;;;41.42;23.63;;;;;;;;;;5050767;28;20850;-74
2022/09/10 03:48:15;;;;;;;38.75;24.67;;;;;;;;;;5075030;28;20028;-74
2022/09/10 03:50:41;;;;;;;33.80;22.92;;;;;;;;;;5079424;28;20399;-74
2022/09/10 03:53:07;;;;;;;37.60;24.13;;;;;;;;;;5062083;28;20032;-73
2022/09/10 03:55:33;;;;;;;36.42;24.00;;;;;;;;;;5075096;28;20033;-73
2022/09/10 03:57:58;;;;;;;30.30;22.73;;;;;;;;;;5079655;28;20506;-74
2022/09/10 04:00:25;;;;;;;32.58;23.50;;;;;;;;;;5063025;28;20083;-75
2022/09/10 04:02:50;;;;;;;31.90;22.58;;;;;;;;;;5064018;28;20047;-74
2022/09/10 04:05:16;;;;;;;38.80;25.02;;;;;;;;;;5070827;28;20064;-74
2022/09/10 04:07:42;;;;;;;38.20;24.35;;;;;;;;;;5046260;28;20029;-74
2022/09/10 04:10:08;;;;;;;43.97;25.50;;;;;;;;;;5076642;28;20024;-74
2022/09/10 04:12:33;;;;;;;38.35;24.42;;;;;;;;;;5080186;28;20040;-74
2022/09/10 04:15:00;;;;;;;40.10;25.60;;;;;;;;;;5075710;28;20070;-74
2022/09/10 04:17:27;;;;;;;38.75;24.60;;;;;;;;;;5064353;28;20444;-74
2022/09/10 04:19:52;;;;;;;33.67;23.33;;;;;;;;;;5080853;28;20036;-74
2022/09/10 04:22:17;;;;;;;32.42;23.67;;;;;;;;;;5060272;28;20533;-74
2022/09/10 04:24:43;;;;;;;39.33;25.33;;;;;;;;;;5058064;28;20064;-75
2022/09/10 04:27:08;;;;;;;36.45;24.60;;;;;;;;;;5062698;28;20059;-74
2022/09/10 04:29:34;;;;;;;36.97;25.38;;;;;;;;;;5077358;28;20288;-74
2022/09/10 04:31:59;;;;;;;46.38;26.35;;;;;;;;;;5077043;28;20116;-74
2022/09/10 04:34:25;;;;;;;40.97;27.60;;;;;;;;;;5074724;28;20546;-73
2022/09/10 04:36:52;;;;;;;42.35;27.13;;;;;;;;;;5078308;28;20068;-73
2022/09/10 04:39:17;;;;;;;43.60;27.92;;;;;;;;;;5081091;28;20051;-73
2022/09/10 04:41:43;;;;;;;43.33;28.50;;;;;;;;;;5062707;28;20107;-74
2022/09/10 04:44:08;;;;;;;38.28;26.85;;;;;;;;;;5063122;28;20055;-74
2022/09/10 04:46:35;;;;;;;42.13;28.35;;;;;;;;;;5075918;28;20123;-75
2022/09/10 04:49:00;;;;;;;49.17;28.83;;;;;;;;;;5062885;28;20040;-74
2022/09/10 04:51:26;;;;;;;45.95;29.83;;;;;;;;;;5049456;28;20090;-74
2022/09/10 04:53:51;;;;;;;53.95;30.92;;;;;;;;;;5058770;28;20067;-74
2022/09/10 04:56:16;;;;;;;53.35;30.75;;;;;;;;;;5053049;28;20028;-74
2022/09/10 04:58:42;;;;;;;41.45;28.25;;;;;;;;;;5048092;28;20462;-74
2022/09/10 05:01:08;;;;;;;43.17;29.50;;;;;;;;;;5080306;28;20100;-74
2022/09/10 05:03:33;;;;;;;49.22;30.77;;;;;;;;;;5040723;28;20031;-74
2022/09/10 05:05:58;;;;;;;51.42;29.58;;;;;;;;;;5065216;28;20083;-74
2022/09/10 05:08:24;;;;;;;64.32;32.88;;;;;;;;;;5062820;28;20064;-74
2022/09/10 05:10:49;;;;;;;57.67;31.70;;;;;;;;;;5080973;28;20040;-74
2022/09/10 05:13:15;;;;;;;55.10;33.60;;;;;;;;;;5073766;28;20359;-74
2022/09/10 05:15:41;;;;;;;59.35;30.77;;;;;;;;;;5061145;28;20023;-74
2022/09/10 05:18:06;;;;;;;48.08;32.75;;;;;;;;;;5049247;28;20116;-74
2022/09/10 05:20:33;;;;;;;49.20;31.90;;;;;;;;;;5065895;28;20159;-74
2022/09/10 05:22:58;;;;;;;55.35;33.78;;;;;;;;;;5070632;28;20033;-74
2022/09/10 05:25:23;;;;;;;54.80;34.38;;;;;;;;;;5082166;28;20067;-74
2022/09/10 05:27:50;;;;;;;52.58;33.92;;;;;;;;;;5080889;28;20056;-74
2022/09/10 05:30:16;;;;;;;57.45;34.85;;;;;;;;;;5055335;28;20033;-74
2022/09/10 05:32:43;;;;;;;51.65;33.92;;;;;;;;;;5052262;28;20128;-74
2022/09/10 05:35:08;;;;;;;55.92;34.55;;;;;;;;;;5061772;28;20115;-73
2022/09/10 05:37:34;;;;;;;59.05;33.17;;;;;;;;;;5077914;28;20020;-74
2022/09/10 05:39:59;;;;;;;55.13;33.88;;;;;;;;;;5038241;28;20028;-74
2022/09/10 05:42:25;;;;;;;52.38;34.70;;;;;;;;;;5073239;28;20028;-71
2022/09/10 05:44:50;;;;;;;46.72;32.65;;;;;;;;;;5053714;28;20064;-75
2022/09/10 05:47:16;;;;;;;50.83;31.63;;;;;;;;;;5066195;28;20439;-75
2022/09/10 05:49:41;;;;;;;48.47;32.55;;;;;;;;;;5039302;28;20081;-75
2022/09/10 05:52:07;;;;;;;45.70;30.98;;;;;;;;;;5078017;28;20534;-75
2022/09/10 05:54:32;;;;;;;44.65;30.42;;;;;;;;;;5053093;28;20029;-75
2022/09/10 05:56:58;;;;;;;51.42;29.88;;;;;;;;;;5076472;28;20031;-75
2022/09/10 05:59:23;;;;;;;49.92;30.60;;;;;;;;;;5075202;28;20388;-75
2022/09/10 06:01:50;;;;;;;46.28;28.83;;;;;;;;;;5057577;28;20028;-75
2022/09/10 06:04:16;;;;;;;43.53;28.95;;;;;;;;;;5079030;28;20029;-75
2022/09/10 06:06:41;;;;;;;51.42;29.17;;;;;;;;;;5060567;28;20181;-76
2022/09/10 06:09:06;;;;;;;40.90;28.02;;;;;;;;;;5072055;28;20542;-76
2022/09/10 06:11:32;;;;;;;37.03;27.63;;;;;;;;;;5046144;28;20107;-76
2022/09/10 06:13:57;;;;;;;40.90;28.52;;;;;;;;;;5082937;28;20032;-76
2022/09/10 06:16:23;;;;;;;40.50;27.27;;;;;;;;;;5022395;28;20516;-76
2022/09/10 06:18:48;;;;;;;38.88;26.05;;;;;;;;;;5036429;28;20556;-76
2022/09/10 06:21:15;;;;;;;40.20;26.50;;;;;;;;;;5070514;28;20074;-76
2022/09/10 06:23:41;;;;;;;43.97;26.90;;;;;;;;;;5034360;28;20083;-76
2022/09/10 06:26:11;;;;;;;38.05;26.48;;;;;;;;;;5061546;28;20036;-76
2022/09/10 06:28:37;;;;;;;39.25;25.90;;;;;;;;;;5051499;28;20480;-76
2022/09/10 06:31:03;;;;;;;48.60;27.00;;;;;;;;;;5062677;28;20043;-76
2022/09/10 06:33:28;;;;;;;33.75;25.33;;;;;;;;;;5052544;28;20032;-75
2022/09/10 06:35:54;;;;;;;37.45;24.85;;;;;;;;;;5044663;28;20114;-76
2022/09/10 06:38:20;;;;;;;33.35;25.02;;;;;;;;;;5057385;28;20033;-76
2022/09/10 06:40:55;;;;;;;42.15;25.90;;;;;;;;;;5057521;28;20025;-76
2022/09/10 06:43:22;;;;;;;40.50;23.77;;;;;;;;;;5052015;28;20025;-76
2022/09/10 06:45:51;;;;;;;33.53;23.95;;;;;;;;;;5056467;28;20387;-76
2022/09/10 06:48:17;;;;;;;31.95;23.30;;;;;;;;;;5058019;28;20024;-76
2022/09/10 06:50:56;;;;;;;34.88;22.52;;;;;;;;;;5036357;28;20440;-76
2022/09/10 06:53:22;;;;;;;35.55;22.58;;;;;;;;;;5056652;28;20737;-76
2022/09/10 06:55:49;;;;;;;34.67;22.50;;;;;;;;;;5046638;28;20079;-76
2022/09/10 06:58:15;;;;;;;34.58;22.98;;;;;;;;;;5048954;28;20383;-76
2022/09/10 07:00:40;;;;;;;39.33;23.60;;;;;;;;;;5068928;28;20127;-76
2022/09/10 07:03:05;;;;;;;31.63;21.77;;;;;;;;;;5076193;28;20052;-76
2022/09/10 07:05:34;;;;;;;30.50;20.58;;;;;;;;;;5069917;28;20450;-74
2022/09/10 07:08:00;;;;;;;29.92;21.38;;;;;;;;;;5075484;28;20028;-76
2022/09/10 07:10:27;;;;;;;30.95;21.15;;;;;;;;;;5059381;28;20467;-75
2022/09/10 07:12:52;;;;;;;25.08;19.30;;;;;;;;;;5068349;28;20478;-75
2022/09/10 07:15:18;;;;;;;25.80;19.50;;;;;;;;;;5078127;28;20086;-74
2022/09/10 07:17:54;;;;;;;29.98;20.02;;;;;;;;;;5074764;28;20414;-78
2022/09/10 07:20:22;;;;;;;21.13;17.80;;;;;;;;;;5042783;28;20451;-76
2022/09/10 07:22:51;;;;;;;25.27;18.35;;;;;;;;;;5059671;28;20352;-76
2022/09/10 07:25:16;;;;;;;22.48;16.85;;;;;;;;;;5043537;28;20024;-77
2022/09/10 07:27:41;;;;;;;22.60;17.33;;;;;;;;;;5055209;28;20136;-77
2022/09/10 07:30:07;;;;;;;27.70;17.85;;;;;;;;;;5061120;28;20476;-77
2022/09/10 07:32:33;;;;;;;25.50;16.20;;;;;;;;;;5076187;28;20043;-77
2022/09/10 07:34:59;;;;;;;20.80;15.68;;;;;;;;;;5046157;28;20027;-77
2022/09/10 07:37:25;;;;;;;24.20;15.85;;;;;;;;;;5063215;28;20487;-75
2022/09/10 07:39:50;;;;;;;17.30;13.75;;;;;;;;;;5044186;28;20031;-75
2022/09/10 07:42:15;;;;;;;21.10;14.82;;;;;;;;;;5061646;28;20028;-76
2022/09/10 07:44:41;;;;;;;19.05;14.18;;;;;;;;;;5076410;28;20020;-76
2022/09/10 07:47:06;;;;;;;21.95;14.20;;;;;;;;;;5075087;28;20112;-76
2022/09/10 07:49:32;;;;;;;18.08;13.70;;;;;;;;;;5049354;28;20076;-75
2022/09/10 07:51:58;;;;;;;18.42;14.35;;;;;;;;;;5034553;28;20393;-75
2022/09/10 07:54:23;;;;;;;16.85;13.77;;;;;;;;;;5067578;28;20028;-75
2022/09/10 07:56:49;;;;;;;19.42;13.77;;;;;;;;;;5032528;28;20048;-75
2022/09/10 07:59:14;;;;;;;19.13;12.65;;;;;;;;;;5068865;28;20390;-75
2022/09/10 08:01:40;;;;;;;15.52;12.15;;;;;;;;;;5067998;28;20032;-75
2022/09/10 08:04:06;;;;;;;18.35;12.65;;;;;;;;;;5059838;28;20056;-75
2022/09/10 08:06:32;;;;;;;16.80;12.10;;;;;;;;;;5069054;28;20028;-75
2022/09/10 08:08:58;;;;;;;14.40;11.98;;;;;;;;;;5039181;28;20074;-75
2022/09/10 08:11:24;;;;;;;19.77;12.73;;;;;;;;;;5034991;28;20039;-75
2022/09/10 08:13:50;;;;;;;12.35;11.00;;;;;;;;;;5031043;28;20029;-75
2022/09/10 08:16:21;;;;;;;17.25;10.75;;;;;;;;;;5042893;28;20476;-75
2022/09/10 08:18:47;;;;;;;13.75;11.15;;;;;;;;;;5071533;28;20150;-75
2022/09/10 08:21:12;;;;;;;16.83;11.13;;;;;;;;;;5058872;28;20037;-75
2022/09/10 08:23:38;;;;;;;18.05;11.30;;;;;;;;;;5061805;28;20028;-75
2022/09/10 08:26:05;;;;;;;12.25;9.88;;;;;;;;;;5051631;28;20042;-75
2022/09/10 08:28:31;;;;;;;12.85;10.10;;;;;;;;;;5050254;28;20025;-75
2022/09/10 08:31:00;;;;;;;12.55;9.07;;;;;;;;;;5049444;28;20043;-74
2022/09/10 08:33:27;;;;;;;10.00;8.50;;;;;;;;;;5050339;28;20036;-75
2022/09/10 08:35:59;;;;;;;12.70;8.95;;;;;;;;;;5047616;28;20048;-75
2022/09/10 08:38:34;;;;;;;12.25;8.70;;;;;;;;;;5050737;28;20036;-75
2022/09/10 08:41:00;;;;;;;9.15;7.53;;;;;;;;;;5051956;28;20040;-74
2022/09/10 08:43:31;;;;;;;12.35;7.68;;;;;;;;;;5051694;28;20040;-73
2022/09/10 08:45:56;;;;;;;11.40;7.28;;;;;;;;;;5037580;28;20088;-74
2022/09/10 08:48:22;;;;;;;10.25;6.95;;;;;;;;;;5054901;28;20127;-74
2022/09/10 08:50:56;;;;;;;10.93;6.82;;;;;;;;;;5051509;28;20079;-74
2022/09/10 08:53:40;;;;;;;9.63;6.68;;;;;;;;;;5054694;28;20074;-74
2022/09/10 08:56:12;;;;;;;12.05;8.95;;;;;;;;;;5053910;28;20348;-78
2022/09/10 08:58:57;;;;;;;10.60;7.47;;;;;;;;;;5067009;28;20021;-77
2022/09/10 09:01:33;;;;;;;16.73;7.85;;;;;;;;;;5052501;28;20495;-77
2022/09/10 09:03:58;;;;;;;14.15;7.22;;;;;;;;;;5057484;28;20107;-77
2022/09/10 09:06:32;;;;;;;10.48;5.82;;;;;;;;;;5073975;28;20131;-78
2022/09/10 09:08:57;;;;;;;10.10;5.50;;;;;;;;;;5079021;28;20037;-77
2022/09/10 09:11:40;;;;;;;8.68;5.63;;;;;;;;;;5057996;28;20471;-77
2022/09/10 09:14:34;;;;;;;9.80;6.35;;;;;;;;;;5063395;28;20036;-77
2022/09/10 09:17:15;;;;;;;9.05;5.88;;;;;;;;;;5074199;28;20047;-79
2022/09/10 09:20:17;;;;;;;7.30;4.57;;;;;;;;;;5055943;28;20032;-79
2022/09/10 09:22:54;;;;;;;8.30;3.83;;;;;;;;;;5030234;28;20115;-79
2022/09/10 09:25:26;;;;;;;7.20;2.53;;;;;;;;;;5049086;28;20063;-78
2022/09/10 09:27:54;;;;;;;6.63;2.85;;;;;;;;;;5057029;28;20093;-78
2022/09/10 09:30:22;;;;;;;5.28;2.83;;;;;;;;;;5039888;28;20093;-77
2022/09/10 09:32:47;;;;;;;8.82;3.78;;;;;;;;;;5055316;28;20029;-79
2022/09/10 09:35:20;;;;;;;8.93;4.47;;;;;;;;;;5057277;28;20044;-79
2022/09/10 09:37:48;;;;;;;6.60;4.68;;;;;;;;;;5077015;28;20029;-79
2022/09/10 09:40:16;;;;;;;10.40;5.38;;;;;;;;;;5055288;28;20033;-78
2022/09/10 09:42:48;;;;;;;7.88;4.88;;;;;;;;;;5054327;28;20067;-77
2022/09/10 09:45:34;;;;;;;6.47;3.58;;;;;;;;;;5078773;28;20039;-76
2022/09/10 09:47:59;;;;;;;8.38;4.65;;;;;;;;;;5059283;28;20037;-78
2022/09/10 09:50:24;;;;;;;7.78;4.57;;;;;;;;;;5075878;28;20044;-78
2022/09/10 09:52:54;;;;;;;9.20;4.63;;;;;;;;;;5037990;28;20032;-78
2022/09/10 09:55:27;;;;;;;6.82;4.20;;;;;;;;;;5049957;28;20380;-79
2022/09/10 09:58:20;;;;;;;11.02;4.70;;;;;;;;;;5060709;28;20040;-75
2022/09/10 10:01:11;;;;;;;7.65;4.10;;;;;;;;;;5067141;28;20453;-75
2022/09/10 10:03:43;;;;;;;8.57;4.15;;;;;;;;;;5064690;28;20086;-75
2022/09/10 10:06:09;;;;;;;8.98;3.63;;;;;;;;;;5053351;28;20035;-73
2022/09/10 10:08:40;;;;;;;5.90;3.22;;;;;;;;;;5052567;28;20162;-73
2022/09/10 10:11:06;;;;;;;8.43;3.38;;;;;;;;;;5069851;28;20028;-72
2022/09/10 10:13:39;;;;;;;5.88;3.15;;;;;;;;;;5070304;28;20063;-72
2022/09/10 10:16:18;;;;;;;8.07;3.67;;;;;;;;;;5053729;28;20552;-72
2022/09/10 10:18:44;;;;;;;6.40;3.10;;;;;;;;;;5069631;28;20036;-72
2022/09/10 10:21:15;;;;;;;6.45;4.15;;;;;;;;;;5070226;28;20089;-72
2022/09/10 10:23:40;;;;;;;6.03;3.72;;;;;;;;;;5052438;28;20103;-75
2022/09/10 10:26:24;;;;;;;10.52;4.53;;;;;;;;;;5052218;28;20043;-75
2022/09/10 10:28:51;;;;;;;9.90;4.20;;;;;;;;;;5052925;28;20191;-75
2022/09/10 10:31:16;;;;;;;7.63;3.88;;;;;;;;;;5036165;28;20036;-75
2022/09/10 10:33:56;;;;;;;12.02;4.78;;;;;;;;;;5069517;28;20029;-74
2022/09/10 10:36:31;;;;;;;7.25;4.57;;;;;;;;;;5069386;28;21348;-74
2022/09/10 10:39:01;;;;;;;8.77;5.13;;;;;;;;;;5076764;28;20365;-75
2022/09/10 10:41:36;;;;;;;9.40;4.95;;;;;;;;;;5066955;28;20056;-75
2022/09/10 10:44:05;;;;;;;11.23;5.43;;;;;;;;;;5068020;28;20560;-81
2022/09/10 10:46:49;;;;;;;9.73;5.68;;;;;;;;;;5055197;28;20066;-80
2022/09/10 10:49:36;;;;;;;9.88;5.80;;;;;;;;;;5066437;28;20036;-80
2022/09/10 10:52:44;;;;;;;9.35;5.72;;;;;;;;;;5081269;28;20031;-81
2022/09/10 10:55:16;;;;;;;8.18;5.88;;;;;;;;;;5021951;28;20077;-81
2022/09/10 10:58:04;;;;;;;10.57;6.70;;;;;;;;;;5052903;28;20024;-80
2022/09/10 11:00:35;;;;;;;9.52;7.07;;;;;;;;;;5057282;28;20100;-80
2022/09/10 11:03:09;;;;;;;9.65;6.20;;;;;;;;;;5039651;28;20048;-80
2022/09/10 11:05:41;;;;;;;8.65;6.05;;;;;;;;;;5038748;28;20024;-81
2022/09/10 11:08:13;;;;;;;12.45;6.38;;;;;;;;;;5092100;28;20035;-81
2022/09/10 11:10:41;;;;;;;11.45;5.90;;;;;;;;;;5042107;28;20093;-81
2022/09/10 11:13:30;;;;;;;7.18;5.97;;;;;;;;;;5058256;28;20032;-81
2022/09/10 11:15:58;;;;;;;7.72;6.10;;;;;;;;;;5077124;28;20032;-80
2022/09/10 11:18:57;;;;;;;10.50;6.25;;;;;;;;;;5033002;28;20024;-80
2022/09/10 11:21:39;;;;;;;6.50;4.90;;;;;;;;;;5049342;28;20143;-80
2022/09/10 11:24:20;;;;;;;8.27;4.97;;;;;;;;;;5066803;28;20040;-81
2022/09/10 11:27:04;;;;;;;7.50;4.60;;;;;;;;;;5030086;28;20027;-81
2022/09/10 11:29:35;;;;;;;7.00;4.20;;;;;;;;;;5059160;28;20514;-80
2022/09/10 11:32:38;;;;;;;9.35;4.13;;;;;;;;;;5081729;28;20105;-77
2022/09/10 11:35:27;;;;;;;9.65;4.15;;;;;;;;;;5076575;28;20048;-78
2022/09/10 11:38:15;;;;;;;8.15;3.92;;;;;;;;;;5058194;28;20075;-77
2022/09/10 11:41:05;;;;;;;5.68;3.40;;;;;;;;;;5065698;28;20403;-77
2022/09/10 11:43:37;;;;;;;6.90;3.08;;;;;;;;;;5038496;28;20036;-77
2022/09/10 11:46:04;;;;;;;4.18;2.35;;;;;;;;;;5066308;28;20036;-77
2022/09/10 11:48:36;;;;;;;5.03;2.75;;;;;;;;;;5047957;28;20500;-77
2022/09/10 11:51:07;;;;;;;6.00;3.05;;;;;;;;;;5033198;28;20056;-78
2022/09/10 11:53:34;;;;;;;7.00;2.67;;;;;;;;;;5048227;28;20082;-78
2022/09/10 11:56:23;;;;;;;5.88;2.70;;;;;;;;;;5054153;28;20500;-77
2022/09/10 11:58:52;;;;;;;4.88;1.90;;;;;;;;;;5050806;28;20086;-78
2022/09/10 12:01:25;;;;;;;3.72;1.73;;;;;;;;;;5066619;28;20024;-78
2022/09/10 12:04:13;;;;;;;6.53;1.95;;;;;;;;;;5037299;28;20040;-76
2022/09/10 12:06:53;;;;;;;4.10;2.03;;;;;;;;;;5065283;28;20032;-78
2022/09/10 12:09:28;;;;;;;3.20;1.75;;;;;;;;;;5039704;28;20032;-77
2022/09/10 12:12:21;;;;;;;3.63;1.55;;;;;;;;;;5058694;28;20053;-77
2022/09/10 12:14:46;;;;;;;4.88;1.83;;;;;;;;;;5032504;28;20162;-78
2022/09/10 12:17:14;;;;;;;5.10;1.80;;;;;;;;;;5036851;28;20029;-78
2022/09/10 12:19:47;;;;;;;4.85;1.80;;;;;;;;;;5032019;28;20623;-78
2022/09/10 12:22:19;;;;;;;3.95;1.40;;;;;;;;;;5046445;28;20107;-78
2022/09/10 12:25:14;;;;;;;5.10;2.20;;;;;;;;;;5071448;28;20402;-78
2022/09/10 12:27:47;;;;;;;4.93;2.00;;;;;;;;;;5055610;28;20411;-78
2022/09/10 12:30:29;;;;;;;5.45;1.73;;;;;;;;;;5037203;28;20060;-78
2022/09/10 12:32:59;;;;;;;4.63;1.63;;;;;;;;;;5073291;28;20072;-78
2022/09/10 12:35:34;;;;;;;4.65;2.17;;;;;;;;;;5064082;28;20028;-77
2022/09/10 12:38:38;;;;;;;4.95;2.28;;;;;;;;;;5072104;28;20111;-75
2022/09/10 12:41:06;;;;;;;4.70;2.33;;;;;;;;;;5066956;28;20032;-75
2022/09/10 12:43:38;;;;;;;8.68;2.33;;;;;;;;;;5054979;28;20510;-75
2022/09/10 12:46:16;;;;;;;4.13;2.05;;;;;;;;;;5070958;28;20047;-75
2022/09/10 12:48:46;;;;;;;3.78;1.83;;;;;;;;;;5048702;28;20027;-75
2022/09/10 12:51:17;;;;;;;6.10;1.98;;;;;;;;;;5036182;28;20028;-75
2022/09/10 12:54:19;;;;;;;7.60;2.17;;;;;;;;;;5072631;28;20338;-75
2022/09/10 12:56:51;;;;;;;3.80;2.00;;;;;;;;;;5063713;28;20399;-75
2022/09/10 12:59:33;;;;;;;4.18;1.98;;;;;;;;;;5067201;28;20066;-75
2022/09/10 13:01:59;;;;;;;5.38;2.40;;;;;;;;;;5066554;28;20028;-76
2022/09/10 13:04:34;;;;;;;5.38;2.67;;;;;;;;;;5051595;28;20087;-76
2022/09/10 13:07:05;;;;;;;4.90;2.33;;;;;;;;;;5062266;28;20032;-76
2022/09/10 13:09:32;;;;;;;6.05;2.92;;;;;;;;;;5041684;28;20094;-76
2022/09/10 13:12:02;;;;;;;10.82;2.90;;;;;;;;;;5061012;28;20039;-76
2022/09/10 13:14:34;;;;;;;5.80;2.10;;;;;;;;;;5039841;28;20032;-76
2022/09/10 13:17:00;;;;;;;4.45;1.80;;;;;;;;;;5055703;28;20095;-76
2022/09/10 13:19:25;;;;;;;3.92;1.80;;;;;;;;;;5030890;28;20026;-76
2022/09/10 13:21:52;;;;;;;3.83;1.65;;;;;;;;;;5079657;28;20093;-76
2022/09/10 13:24:34;;;;;;;8.65;1.90;;;;;;;;;;5054956;28;20024;-76
2022/09/10 13:27:16;;;;;;;7.45;2.08;;;;;;;;;;5072193;28;20046;-76
2022/09/10 13:29:46;;;;;;;4.82;2.15;;;;;;;;;;5066020;28;20083;-76
2022/09/10 13:32:19;;;;;;;6.07;2.08;;;;;;;;;;5049238;28;20039;-76
2022/09/10 13:35:09;;;;;;;5.07;2.55;;;;;;;;;;5065372;28;20054;-76
2022/09/10 13:38:02;;;;;;;7.57;2.20;;;;;;;;;;5065824;28;20036;-76
2022/09/10 13:40:54;;;;;;;5.53;2.58;;;;;;;;;;5069477;28;20392;-76
2022/09/10 13:43:38;;;;;;;4.93;1.90;;;;;;;;;;5068752;28;20024;-76
2022/09/10 13:46:05;;;;;;;3.97;2.22;;;;;;;;;;5071446;28;20463;-77
2022/09/10 13:48:42;;;;;;;7.63;2.67;;;;;;;;;;5037289;28;20033;-77
2022/09/10 13:51:38;;;;;;;7.38;2.70;;;;;;;;;;5046287;28;20024;-77
2022/09/10 13:54:14;;;;;;;4.90;2.83;;;;;;;;;;5046567;28;20437;-76
2022/09/10 13:56:40;;;;;;;5.78;3.15;;;;;;;;;;5051744;28;20032;-76
2022/09/10 13:59:05;;;;;;;8.00;3.88;;;;;;;;;;5051395;28;20052;-76
2022/09/10 14:01:53;;;;;;;6.85;3.28;;;;;;;;;;5067261;28;20036;-76
2022/09/10 14:04:25;;;;;;;5.45;3.10;;;;;;;;;;5057679;28;20252;-76
2022/09/10 14:07:05;;;;;;;4.88;3.20;;;;;;;;;;5061487;28;20067;-76
2022/09/10 14:09:31;;;;;;;7.18;3.45;;;;;;;;;;5055914;28;20062;-76
2022/09/10 14:11:58;;;;;;;7.82;2.90;;;;;;;;;;5039767;28;20543;-76
2022/09/10 14:14:26;;;;;;;6.68;2.75;;;;;;;;;;5045018;28;20158;-76
2022/09/10 14:16:53;;;;;;;6.43;2.92;;;;;;;;;;5049045;28;20033;-76
2022/09/10 14:19:22;;;;;;;8.07;3.47;;;;;;;;;;5067232;28;20084;-76
2022/09/10 14:21:48;;;;;;;6.13;3.33;;;;;;;;;;5049076;28;20086;-76
2022/09/10 14:24:46;;;;;;;7.30;3.40;;;;;;;;;;5026585;28;20024;-76
2022/09/10 14:27:12;;;;;;;5.00;3.40;;;;;;;;;;5049420;28;20471;-75
2022/09/10 14:29:38;;;;;;;15.13;3.47;;;;;;;;;;5064039;28;20390;-76
2022/09/10 14:32:21;;;;;;;7.07;3.60;;;;;;;;;;5057731;28;20032;-75
2022/09/10 14:34:47;;;;;;;7.82;3.70;;;;;;;;;;5065282;28;20032;-75
2022/09/10 14:37:33;;;;;;;7.10;3.40;;;;;;;;;;5034350;28;20027;-75
2022/09/10 14:40:14;;;;;;;8.63;4.00;;;;;;;;;;5037676;28;20036;-75
2022/09/10 14:42:40;;;;;;;6.68;3.22;;;;;;;;;;5054800;28;20036;-75
2022/09/10 14:45:37;;;;;;;7.85;4.10;;;;;;;;;;5050994;28;20033;-74
2022/09/10 14:48:02;;;;;;;6.47;3.70;;;;;;;;;;5061920;28;20032;-77